createdAt,value
2023-06-30T00:00:35.832Z,95085.19
2023-06-30T00:03:02.945Z,95080.88
2023-06-30T00:05:30.013Z,95087.06
2023-06-30T00:07:59.830Z,95089.00
2023-06-30T00:10:27.112Z,95090.34
2023-06-30T00:12:54.336Z,95085.75
2023-06-30T00:15:21.201Z,95087.41
2023-06-30T00:17:49.716Z,95081.00
2023-06-30T00:20:16.832Z,95081.25
2023-06-30T00:22:43.689Z,95078.00
2023-06-30T00:25:11.660Z,95086.88
2023-06-30T00:27:39.645Z,95079.91
2023-06-30T00:30:06.727Z,95082.88
2023-06-30T00:32:34.413Z,95084.50
2023-06-30T00:35:01.482Z,95083.66
2023-06-30T00:37:28.373Z,95084.22
2023-06-30T00:39:55.444Z,95086.34
2023-06-30T00:42:24.716Z,95082.88
2023-06-30T00:44:51.571Z,95084.78
2023-06-30T00:47:19.321Z,95095.78
2023-06-30T00:49:46.678Z,95087.47
2023-06-30T00:52:13.475Z,95085.31
2023-06-30T00:54:41.448Z,95079.13
2023-06-30T00:57:08.459Z,95081.28
2023-06-30T00:59:35.394Z,95078.06
2023-06-30T01:02:06.070Z,95079.41
2023-06-30T01:04:48.426Z,95081.28
2023-06-30T01:07:21.240Z,95080.22
2023-06-30T01:09:52.527Z,95085.59
2023-06-30T01:12:19.809Z,95088.81
2023-06-30T01:14:47.824Z,95085.56
2023-06-30T01:17:16.567Z,95085.31
2023-06-30T01:19:46.342Z,95085.03
2023-06-30T01:22:20.427Z,95079.13
2023-06-30T01:24:49.280Z,95072.69
2023-06-30T01:27:16.113Z,95078.06
2023-06-30T01:29:43.783Z,95069.72
2023-06-30T01:32:11.077Z,95071.59
2023-06-30T01:34:38.334Z,95069.75
2023-06-30T01:37:05.165Z,95063.03
2023-06-30T01:39:32.261Z,95064.63
2023-06-30T01:42:00.360Z,95062.69
2023-06-30T01:44:28.002Z,95058.94
2023-06-30T01:46:54.901Z,95057.59
2023-06-30T01:49:22.360Z,95055.22
2023-06-30T01:51:50.202Z,95050.34
2023-06-30T01:54:16.968Z,95053.84
2023-06-30T01:56:50.507Z,95052.50
2023-06-30T01:59:17.717Z,95059.28
2023-06-30T02:01:44.549Z,95048.47
2023-06-30T02:04:11.472Z,95054.91
2023-06-30T02:06:38.258Z,95057.34
2023-06-30T02:09:05.190Z,95048.19
2023-06-30T02:11:32.360Z,95060.25
2023-06-30T02:13:59.182Z,95053.34
2023-06-30T02:16:26.084Z,95054.94
2023-06-30T02:18:56.111Z,95069.41
2023-06-30T02:21:23.401Z,95066.91
2023-06-30T02:23:50.188Z,95068.53
2023-06-30T02:26:17.154Z,95061.06
2023-06-30T02:28:44.106Z,95060.53
2023-06-30T02:31:11.142Z,95068.50
2023-06-30T02:33:38.900Z,95063.44
2023-06-30T02:36:05.859Z,95066.63
2023-06-30T02:38:32.982Z,95065.56
2023-06-30T02:40:59.868Z,95069.81
2023-06-30T02:43:28.677Z,95065.56
2023-06-30T02:45:55.642Z,95067.47
2023-06-30T02:48:22.667Z,95060.44
2023-06-30T02:50:49.839Z,95064.16
2023-06-30T02:53:17.433Z,95061.00
2023-06-30T02:55:44.517Z,95054.84
2023-06-30T02:58:15.134Z,95061.22
2023-06-30T03:00:42.931Z,95057.19
2023-06-30T03:03:10.118Z,95052.41
2023-06-30T03:05:38.411Z,95058.31
2023-06-30T03:08:07.122Z,95052.69
2023-06-30T03:10:34.359Z,95054.06
2023-06-30T03:13:01.298Z,95051.88
2023-06-30T03:15:29.132Z,95055.88
2023-06-30T03:17:56.783Z,95051.09
2023-06-30T03:20:24.595Z,95044.41
2023-06-30T03:22:53.179Z,95043.28
2023-06-30T03:25:20.545Z,95044.94
2023-06-30T03:27:47.482Z,95048.72
2023-06-30T03:30:14.697Z,95046.88
2023-06-30T03:32:45.202Z,95049.84
2023-06-30T03:35:12.089Z,95047.44
2023-06-30T03:37:38.894Z,95040.72
2023-06-30T03:40:06.885Z,95051.97
2023-06-30T03:42:34.120Z,95050.28
2023-06-30T03:45:01.904Z,95051.81
2023-06-30T03:47:32.125Z,95057.78
2023-06-30T03:49:58.849Z,95058.03
2023-06-30T03:52:27.601Z,95054.78
2023-06-30T03:54:54.858Z,95053.47
2023-06-30T03:57:21.770Z,95057.84
2023-06-30T03:59:48.697Z,95056.00
2023-06-30T04:02:15.497Z,95059.75
2023-06-30T04:04:42.396Z,95074.03
2023-06-30T04:07:09.620Z,95061.69
2023-06-30T04:09:36.446Z,95064.63
2023-06-30T04:12:03.354Z,95067.31
2023-06-30T04:14:30.514Z,95069.44
2023-06-30T04:16:59.300Z,95069.47
2023-06-30T04:19:26.409Z,95069.72
2023-06-30T04:21:53.261Z,95064.59
2023-06-30T04:24:20.870Z,95063.00
2023-06-30T04:26:47.852Z,95069.41
2023-06-30T04:29:16.727Z,95069.41
2023-06-30T04:31:44.131Z,95066.91
2023-06-30T04:34:11.157Z,95062.88
2023-06-30T04:36:38.325Z,95064.47
2023-06-30T04:39:05.289Z,95055.00
2023-06-30T04:41:32.277Z,95052.25
2023-06-30T04:44:00.716Z,95056.94
2023-06-30T04:46:28.423Z,95051.81
2023-06-30T04:48:57.103Z,95059.03
2023-06-30T04:51:24.804Z,95060.50
2023-06-30T04:53:51.656Z,95062.94
2023-06-30T04:56:20.214Z,95061.09
2023-06-30T04:58:47.274Z,95065.63
2023-06-30T05:01:14.184Z,95059.88
2023-06-30T05:03:41.040Z,95063.59
2023-06-30T05:06:08.130Z,95050.28
2023-06-30T05:08:34.940Z,95055.53
2023-06-30T05:11:01.851Z,95056.00
2023-06-30T05:13:28.721Z,95061.22
2023-06-30T05:15:55.561Z,95057.25
2023-06-30T05:18:22.415Z,95059.63
2023-06-30T05:20:49.344Z,95063.69
2023-06-30T05:23:16.109Z,95057.22
2023-06-30T05:25:43.795Z,95060.19
2023-06-30T05:28:10.809Z,95056.06
2023-06-30T05:30:37.613Z,95066.19
2023-06-30T05:33:04.454Z,95069.00
2023-06-30T05:35:31.786Z,95064.03
2023-06-30T05:37:58.691Z,95061.34
2023-06-30T05:40:25.514Z,95069.13
2023-06-30T05:42:52.372Z,95070.09
2023-06-30T05:45:19.261Z,95065.94
2023-06-30T05:47:46.139Z,95066.69
2023-06-30T05:50:12.885Z,95071.69
2023-06-30T05:52:40.317Z,95073.63
2023-06-30T05:55:07.353Z,95068.97
2023-06-30T05:57:34.673Z,95073.19
2023-06-30T06:00:01.418Z,95073.53
2023-06-30T06:02:38.873Z,95074.66
2023-06-30T06:05:06.089Z,95076.41
2023-06-30T06:07:34.032Z,95069.75
2023-06-30T06:10:01.035Z,95076.66
2023-06-30T06:12:27.869Z,95080.97
2023-06-30T06:14:54.795Z,95084.50
2023-06-30T06:17:21.678Z,95075.13
2023-06-30T06:19:49.536Z,95077.13
2023-06-30T06:22:16.559Z,95080.72
2023-06-30T06:24:43.480Z,95071.19
2023-06-30T06:27:10.258Z,95067.22
2023-06-30T06:29:37.030Z,95065.72
2023-06-30T06:32:03.995Z,95060.72
2023-06-30T06:34:31.049Z,95064.06
2023-06-30T06:36:57.898Z,95061.59
2023-06-30T06:39:24.868Z,95064.50
2023-06-30T06:41:51.580Z,95054.84
2023-06-30T06:44:18.529Z,95061.00
2023-06-30T06:46:45.770Z,95062.59
2023-06-30T06:49:12.769Z,95056.66
2023-06-30T06:51:39.588Z,95061.44
2023-06-30T06:54:06.396Z,95058.13
2023-06-30T06:56:33.279Z,95059.59
2023-06-30T06:59:00.156Z,95063.34
2023-06-30T07:01:27.001Z,95068.47
2023-06-30T07:03:54.047Z,95060.56
2023-06-30T07:06:22.402Z,95065.44
2023-06-30T07:08:50.185Z,95061.28
2023-06-30T07:11:17.016Z,95056.78
2023-06-30T07:13:43.939Z,95050.34
2023-06-30T07:16:11.968Z,95059.59
2023-06-30T07:18:38.978Z,95046.94
2023-06-30T07:21:05.915Z,95052.66
2023-06-30T07:23:32.798Z,95052.28
2023-06-30T07:25:59.723Z,95050.66
2023-06-30T07:28:26.628Z,95044.63
2023-06-30T07:30:53.773Z,95043.91
2023-06-30T07:33:21.164Z,95040.72
2023-06-30T07:35:48.349Z,95040.78
2023-06-30T07:38:15.429Z,95039.25
2023-06-30T07:40:55.125Z,95000.75
2023-06-30T07:43:23.938Z,95030.78
2023-06-30T07:45:50.891Z,95033.34
2023-06-30T07:48:17.792Z,95039.38
2023-06-30T07:50:54.559Z,95037.59
2023-06-30T07:53:30.407Z,95044.97
2023-06-30T07:55:57.277Z,95037.09
2023-06-30T07:58:24.088Z,95037.47
2023-06-30T08:00:50.896Z,95031.34
2023-06-30T08:03:17.961Z,95025.81
2023-06-30T08:05:45.376Z,95026.38
2023-06-30T08:08:12.946Z,95032.03
2023-06-30T08:10:41.514Z,95030.00
2023-06-30T08:13:09.079Z,95015.56
2023-06-30T08:15:36.077Z,95026.56
2023-06-30T08:18:10.249Z,95023.16
2023-06-30T08:20:37.641Z,95020.59
2023-06-30T08:23:04.554Z,95022.06
2023-06-30T08:25:31.296Z,95013.50
2023-06-30T08:27:58.669Z,95007.97
2023-06-30T08:30:25.808Z,94995.81
2023-06-30T08:32:55.460Z,94999.31
2023-06-30T08:35:23.825Z,94993.59
2023-06-30T08:37:53.294Z,94993.41
2023-06-30T08:40:25.716Z,94987.78
2023-06-30T08:42:53.337Z,94977.75
2023-06-30T08:45:24.551Z,94981.25
2023-06-30T08:47:52.246Z,94982.19
2023-06-30T08:50:19.546Z,94978.69
2023-06-30T08:52:46.666Z,94980.13
2023-06-30T08:55:13.901Z,94976.91
2023-06-30T08:57:42.489Z,94975.38
2023-06-30T09:00:09.538Z,94971.22
2023-06-30T09:02:37.759Z,94966.69
2023-06-30T09:05:05.638Z,94972.66
2023-06-30T09:07:39.253Z,94968.16
2023-06-30T09:10:09.879Z,94983.59
2023-06-30T09:12:38.845Z,94965.78
2023-06-30T09:15:07.785Z,94974.81
2023-06-30T09:17:34.832Z,94970.44
2023-06-30T09:20:01.760Z,94977.78
2023-06-30T09:22:55.311Z,94975.22
2023-06-30T09:25:26.471Z,94962.16
2023-06-30T09:27:53.839Z,94968.66
2023-06-30T09:30:32.123Z,94967.06
2023-06-30T09:32:59.143Z,94964.31
2023-06-30T09:35:26.030Z,94967.25
2023-06-30T09:37:54.330Z,94957.09
2023-06-30T09:40:27.361Z,94955.38
2023-06-30T09:42:54.494Z,94960.63
2023-06-30T09:45:21.721Z,94952.19
2023-06-30T09:47:52.665Z,94956.28
2023-06-30T09:50:26.172Z,94946.72
2023-06-30T09:52:53.019Z,94945.53
2023-06-30T09:55:19.939Z,94942.59
2023-06-30T09:57:47.600Z,94948.13
2023-06-30T10:00:29.813Z,94941.06
2023-06-30T10:03:06.472Z,94936.41
2023-06-30T10:05:33.594Z,94933.41
2023-06-30T10:08:03.682Z,94933.34
2023-06-30T10:10:32.018Z,94930.25
2023-06-30T10:13:00.009Z,94927.22
2023-06-30T10:15:27.456Z,94901.75
2023-06-30T10:17:55.869Z,94908.97
2023-06-30T10:20:33.940Z,94902.31
2023-06-30T10:23:09.918Z,94901.22
2023-06-30T10:25:38.909Z,94899.97
2023-06-30T10:28:07.539Z,94903.50
2023-06-30T10:30:35.469Z,94900.34
2023-06-30T10:33:02.866Z,94900.22
2023-06-30T10:35:30.134Z,94887.34
2023-06-30T10:37:57.558Z,94890.75
2023-06-30T10:40:25.913Z,94887.75
2023-06-30T10:42:54.562Z,94890.41
2023-06-30T10:45:21.463Z,94884.72
2023-06-30T10:47:54.176Z,94879.16
2023-06-30T10:50:21.039Z,94872.88
2023-06-30T10:52:51.865Z,94870.94
2023-06-30T10:55:22.143Z,94872.00
2023-06-30T10:57:53.014Z,94868.22
2023-06-30T11:00:22.687Z,94858.91
2023-06-30T11:02:59.799Z,94858.53
2023-06-30T11:05:30.782Z,94862.34
2023-06-30T11:08:05.346Z,94851.53
2023-06-30T11:10:36.604Z,94852.25
2023-06-30T11:13:04.503Z,94847.66
2023-06-30T11:15:38.642Z,94848.84
2023-06-30T11:18:07.497Z,94849.25
2023-06-30T11:20:34.631Z,94847.50
2023-06-30T11:23:06.570Z,94849.19
2023-06-30T11:25:34.588Z,94844.75
2023-06-30T11:28:03.446Z,94841.84
2023-06-30T11:30:34.877Z,94822.69
2023-06-30T11:33:01.729Z,94822.38
2023-06-30T11:35:30.357Z,94817.25
2023-06-30T11:37:57.198Z,94819.28
2023-06-30T11:40:24.115Z,94816.44
2023-06-30T11:42:51.311Z,94815.34
2023-06-30T11:45:21.508Z,94816.63
2023-06-30T11:47:50.679Z,94817.66
2023-06-30T11:50:20.194Z,94816.06
2023-06-30T11:52:48.673Z,94815.19
2023-06-30T11:55:16.267Z,94810.66
2023-06-30T11:57:44.493Z,94808.88
2023-06-30T12:00:19.108Z,94808.22
2023-06-30T12:02:59.633Z,94796.94
2023-06-30T12:05:27.856Z,94800.47
2023-06-30T12:07:57.442Z,94791.13
2023-06-30T12:10:38.981Z,94779.91
2023-06-30T12:13:09.758Z,94786.63
2023-06-30T12:15:37.740Z,94780.78
2023-06-30T12:18:07.658Z,94779.56
2023-06-30T12:20:39.253Z,94776.56
2023-06-30T12:23:07.250Z,94775.16
2023-06-30T12:25:37.714Z,94776.56
2023-06-30T12:28:05.356Z,94774.28
2023-06-30T12:30:32.580Z,94779.34
2023-06-30T12:33:00.919Z,94790.28
2023-06-30T12:35:28.486Z,94781.78
2023-06-30T12:37:55.205Z,94778.53
2023-06-30T12:40:22.811Z,94767.25
2023-06-30T12:42:49.703Z,94770.34
2023-06-30T12:45:17.716Z,94768.94
2023-06-30T12:47:44.676Z,94776.50
2023-06-30T12:50:11.708Z,94774.78
2023-06-30T12:52:38.790Z,94767.34
2023-06-30T12:55:05.728Z,94770.31
2023-06-30T12:57:32.633Z,94762.16
2023-06-30T12:59:59.861Z,94746.97
2023-06-30T13:02:26.608Z,94750.31
2023-06-30T13:04:53.677Z,94748.59
2023-06-30T13:07:20.568Z,94751.53
2023-06-30T13:09:50.266Z,94746.16
2023-06-30T13:12:18.224Z,94742.03
2023-06-30T13:14:45.625Z,94739.34
2023-06-30T13:17:12.478Z,94736.81
2023-06-30T13:19:39.266Z,94734.06
2023-06-30T13:22:06.321Z,94738.06
2023-06-30T13:24:33.090Z,94740.06
2023-06-30T13:27:00.321Z,94737.84
2023-06-30T13:29:27.181Z,94735.53
2023-06-30T13:31:54.744Z,94731.28
2023-06-30T13:34:21.803Z,94721.31
2023-06-30T13:36:48.599Z,94719.66
2023-06-30T13:39:15.509Z,94725.34
2023-06-30T13:41:43.168Z,94726.00
2023-06-30T13:44:10.608Z,94726.56
2023-06-30T13:46:37.495Z,94717.75
2023-06-30T13:49:04.315Z,94722.50
2023-06-30T13:51:31.204Z,94719.41
2023-06-30T13:53:58.118Z,94712.78
2023-06-30T13:56:25.007Z,94711.03
2023-06-30T13:58:51.775Z,94703.88
2023-06-30T14:01:18.651Z,94712.00
2023-06-30T14:03:49.662Z,94712.09
2023-06-30T14:06:17.710Z,94696.06
2023-06-30T14:08:44.617Z,94705.16
2023-06-30T14:11:11.371Z,94700.88
2023-06-30T14:13:38.746Z,94697.09
2023-06-30T14:16:05.788Z,94687.00
2023-06-30T14:18:32.745Z,94685.19
2023-06-30T14:20:59.581Z,94681.38
2023-06-30T14:23:26.741Z,94672.03
2023-06-30T14:25:53.633Z,94674.25
2023-06-30T14:28:20.503Z,94669.56
2023-06-30T14:30:47.333Z,94664.31
2023-06-30T14:33:14.192Z,94667.59
2023-06-30T14:35:41.058Z,94662.97
2023-06-30T14:38:07.977Z,94663.63
2023-06-30T14:40:34.926Z,94658.72
2023-06-30T14:43:01.768Z,94655.63
2023-06-30T14:45:31.601Z,94647.59
2023-06-30T14:47:58.801Z,94648.63
2023-06-30T14:50:25.880Z,94648.47
2023-06-30T14:52:52.773Z,94647.03
2023-06-30T14:55:19.633Z,94643.28
2023-06-30T14:57:46.942Z,94643.84
2023-06-30T15:00:14.412Z,94640.25
2023-06-30T15:02:41.270Z,94646.59
2023-06-30T15:05:08.364Z,94638.28
2023-06-30T15:07:36.552Z,94635.31
2023-06-30T15:10:03.665Z,94624.88
2023-06-30T15:12:30.694Z,94626.00
2023-06-30T15:14:57.628Z,94624.88
2023-06-30T15:17:24.479Z,94626.28
2023-06-30T15:19:51.560Z,94617.00
2023-06-30T15:22:18.791Z,94623.94
2023-06-30T15:24:45.700Z,94611.41
2023-06-30T15:27:12.788Z,94617.91
2023-06-30T15:29:39.611Z,94625.94
2023-06-30T15:32:06.379Z,94623.69
2023-06-30T15:34:33.203Z,94619.09
2023-06-30T15:37:00.473Z,94618.19
2023-06-30T15:39:27.953Z,94615.75
2023-06-30T15:41:54.705Z,94614.28
2023-06-30T15:44:21.492Z,94615.81
2023-06-30T15:46:48.282Z,94607.16
2023-06-30T15:49:15.134Z,94606.56
2023-06-30T15:51:41.970Z,94601.34
2023-06-30T15:54:08.772Z,94597.75
2023-06-30T15:56:35.643Z,94608.50
2023-06-30T15:59:02.523Z,94604.50
2023-06-30T16:01:29.944Z,94599.25
2023-06-30T16:03:56.938Z,94604.47
2023-06-30T16:06:23.984Z,94605.16
2023-06-30T16:08:50.800Z,94607.22
2023-06-30T16:11:17.684Z,94608.66
2023-06-30T16:14:03.442Z,94599.53
2023-06-30T16:16:30.310Z,94603.69
2023-06-30T16:18:57.174Z,94610.22
2023-06-30T16:21:24.006Z,94606.69
2023-06-30T16:23:51.341Z,94610.16
2023-06-30T16:26:20.230Z,94614.72
2023-06-30T16:28:47.155Z,94607.53
2023-06-30T16:31:14.362Z,94611.59
2023-06-30T16:33:41.567Z,94608.59
2023-06-30T16:36:09.213Z,94611.91
2023-06-30T16:38:36.265Z,94615.69
2023-06-30T16:41:03.077Z,94611.81
2023-06-30T16:43:29.945Z,94597.66
2023-06-30T16:45:56.734Z,94601.19
2023-06-30T16:48:23.532Z,94603.47
2023-06-30T16:50:50.449Z,94603.06
2023-06-30T16:53:17.490Z,94601.31
2023-06-30T16:55:44.374Z,94592.81
2023-06-30T16:58:13.523Z,94594.44
2023-06-30T17:00:40.455Z,94590.72
2023-06-30T17:03:07.418Z,94594.28
2023-06-30T17:05:34.583Z,94588.00
2023-06-30T17:08:01.342Z,94586.72
2023-06-30T17:10:28.292Z,94579.81
2023-06-30T17:12:55.950Z,94579.31
2023-06-30T17:15:27.248Z,94579.16
2023-06-30T17:17:56.562Z,94580.06
2023-06-30T17:20:24.399Z,94594.34
2023-06-30T17:22:51.516Z,94592.00
2023-06-30T17:25:18.267Z,94587.72
2023-06-30T17:27:45.285Z,94592.09
2023-06-30T17:30:12.263Z,94592.28
2023-06-30T17:32:39.440Z,94588.38
2023-06-30T17:35:06.452Z,94574.06
2023-06-30T17:37:33.296Z,94577.06
2023-06-30T17:40:00.080Z,94572.56
2023-06-30T17:42:26.832Z,94578.03
2023-06-30T17:44:53.720Z,94580.28
2023-06-30T17:47:20.766Z,94584.72
2023-06-30T17:49:48.342Z,94580.16
2023-06-30T17:52:16.229Z,94576.66
2023-06-30T17:54:43.148Z,94586.88
2023-06-30T17:57:09.973Z,94580.22
2023-06-30T17:59:36.790Z,94583.38
2023-06-30T18:02:06.226Z,94580.28
2023-06-30T18:04:33.584Z,94577.56
2023-06-30T18:07:06.580Z,94572.25
2023-06-30T18:09:35.496Z,94579.00
2023-06-30T18:12:02.863Z,94577.47
2023-06-30T18:14:30.274Z,94582.78
2023-06-30T18:16:57.524Z,94580.66
2023-06-30T18:19:24.570Z,94583.91
2023-06-30T18:21:52.864Z,94578.38
2023-06-30T18:24:19.918Z,94569.69
2023-06-30T18:26:50.276Z,94574.91
2023-06-30T18:29:18.141Z,94582.13
2023-06-30T18:31:45.152Z,94576.16
2023-06-30T18:34:12.173Z,94575.63
2023-06-30T18:36:39.040Z,94574.31
2023-06-30T18:39:06.082Z,94577.97
2023-06-30T18:41:32.878Z,94576.03
2023-06-30T18:43:59.853Z,94576.41
2023-06-30T18:46:29.785Z,94569.38
2023-06-30T18:49:02.146Z,94569.63
2023-06-30T18:51:31.260Z,94568.69
2023-06-30T18:53:58.293Z,94573.53
2023-06-30T18:56:26.123Z,94567.31
2023-06-30T18:58:55.453Z,94572.25
2023-06-30T19:01:22.488Z,94578.19
2023-06-30T19:03:51.347Z,94582.22
2023-06-30T19:06:21.755Z,94584.50
2023-06-30T19:08:49.142Z,94585.97
2023-06-30T19:11:16.357Z,94592.59
2023-06-30T19:13:43.283Z,94593.63
2023-06-30T19:16:10.849Z,94595.25
2023-06-30T19:18:40.085Z,94602.69
2023-06-30T19:21:10.480Z,94599.03
2023-06-30T19:23:38.284Z,94602.69
2023-06-30T19:26:05.273Z,94600.19
2023-06-30T19:28:32.887Z,94598.06
2023-06-30T19:31:00.231Z,94603.34
2023-06-30T19:33:31.573Z,94604.50
2023-06-30T19:35:58.693Z,94609.63
2023-06-30T19:38:25.738Z,94604.38
2023-06-30T19:40:52.718Z,94608.19
2023-06-30T19:43:19.530Z,94615.84
2023-06-30T19:45:46.966Z,94619.38
2023-06-30T19:48:13.926Z,94616.50
2023-06-30T19:50:42.679Z,94608.84
2023-06-30T19:53:09.713Z,94615.06
2023-06-30T19:55:36.872Z,94619.84
2023-06-30T19:58:03.816Z,94630.53
2023-06-30T20:00:31.152Z,94619.38
2023-06-30T20:02:58.557Z,94613.31
2023-06-30T20:05:25.520Z,94627.66
2023-06-30T20:07:52.277Z,94619.66
2023-06-30T20:10:19.217Z,94618.06
2023-06-30T20:12:46.159Z,94628.16
2023-06-30T20:15:13.074Z,94630.22
2023-06-30T20:17:40.057Z,94622.38
2023-06-30T20:20:07.475Z,94615.00
2023-06-30T20:22:34.449Z,94617.09
2023-06-30T20:25:01.446Z,94626.06
2023-06-30T20:27:29.394Z,94625.88
2023-06-30T20:29:56.152Z,94621.13
2023-06-30T20:32:23.365Z,94620.50
2023-06-30T20:34:59.018Z,94619.09
2023-06-30T20:37:25.919Z,94616.44
2023-06-30T20:39:55.955Z,94622.47
2023-06-30T20:42:23.953Z,94623.53
2023-06-30T20:44:51.265Z,94616.75
2023-06-30T20:47:18.746Z,94626.16
2023-06-30T20:49:45.991Z,94629.50
2023-06-30T20:52:12.884Z,94633.38
2023-06-30T20:54:39.722Z,94631.06
2023-06-30T20:57:06.737Z,94632.66
2023-06-30T20:59:33.575Z,94635.13
2023-06-30T21:02:01.047Z,94636.28
2023-06-30T21:04:28.029Z,94632.97
2023-06-30T21:06:55.001Z,94633.03
2023-06-30T21:09:21.755Z,94632.91
2023-06-30T21:11:48.633Z,94623.03
2023-06-30T21:14:15.415Z,94639.38
2023-06-30T21:16:42.862Z,94640.63
2023-06-30T21:19:09.859Z,94645.72
2023-06-30T21:21:36.816Z,94644.81
2023-06-30T21:24:03.807Z,94638.53
2023-06-30T21:26:30.631Z,94639.38
2023-06-30T21:28:57.456Z,94638.13
2023-06-30T21:31:24.586Z,94635.06
2023-06-30T21:33:51.810Z,94640.94
2023-06-30T21:36:18.684Z,94640.78
2023-06-30T21:38:45.535Z,94652.78
2023-06-30T21:41:12.537Z,94650.56
2023-06-30T21:43:39.287Z,94651.78
2023-06-30T21:46:16.590Z,94650.59
2023-06-30T21:48:44.576Z,94651.31
2023-06-30T21:51:11.397Z,94641.28
2023-06-30T21:53:38.328Z,94653.66
2023-06-30T21:56:05.702Z,94646.28
2023-06-30T21:58:32.674Z,94653.84
2023-06-30T22:00:59.643Z,94651.88
2023-06-30T22:03:27.291Z,94657.69
2023-06-30T22:05:54.285Z,94662.91
2023-06-30T22:08:21.313Z,94651.28
2023-06-30T22:10:48.465Z,94655.00
2023-06-30T22:13:15.446Z,94656.19
2023-06-30T22:15:42.367Z,94662.91
2023-06-30T22:18:09.768Z,94656.09
2023-06-30T22:20:36.663Z,94661.31
2023-06-30T22:23:03.465Z,94665.91
2023-06-30T22:25:30.352Z,94660.91
2023-06-30T22:27:57.229Z,94657.03
2023-06-30T22:30:25.853Z,94650.81
2023-06-30T22:32:52.956Z,94657.69
2023-06-30T22:35:19.915Z,94657.00
2023-06-30T22:37:46.751Z,94665.72
2023-06-30T22:40:14.350Z,94655.28
2023-06-30T22:42:41.331Z,94658.31
2023-06-30T22:45:08.366Z,94653.81
2023-06-30T22:47:35.372Z,94651.03
2023-06-30T22:50:02.814Z,94639.81
2023-06-30T22:52:30.567Z,94647.41
2023-06-30T22:54:57.408Z,94650.31
2023-06-30T22:57:24.230Z,94653.91
2023-06-30T22:59:52.604Z,94647.09
2023-06-30T23:02:19.830Z,94652.69
2023-06-30T23:04:46.914Z,94660.59
2023-06-30T23:07:16.046Z,94657.00
2023-06-30T23:09:42.938Z,94648.38
2023-06-30T23:12:10.003Z,94644.25
2023-06-30T23:14:36.826Z,94654.16
2023-06-30T23:17:04.450Z,94648.25
2023-06-30T23:19:33.152Z,94650.41
2023-06-30T23:22:12.840Z,94650.03
2023-06-30T23:24:39.827Z,94659.41
2023-06-30T23:27:07.049Z,94600.25
2023-06-30T23:29:37.304Z,94650.22
2023-06-30T23:32:08.252Z,94647.97
2023-06-30T23:34:38.140Z,94656.28
2023-06-30T23:37:05.516Z,94653.13
2023-06-30T23:39:32.335Z,94662.38
2023-06-30T23:41:59.472Z,94652.81
2023-06-30T23:44:26.841Z,94653.19
2023-06-30T23:46:54.606Z,94653.88
2023-06-30T23:49:21.750Z,94654.13
2023-06-30T23:51:48.963Z,94658.19
2023-06-30T23:54:16.086Z,94662.34
2023-06-30T23:56:43.355Z,94663.31
2023-06-30T23:59:10.548Z,94650.06
